sensor_id;sensor_type;location;lat;lon;timestamp;P1;durP1;ratioP1;P2;durP2;ratioP2
71204;SDS011;58935;54.498;18.544;2023-07-13T00:01:27;7.40;;;3.00;;
71204;SDS011;58935;54.498;18.544;2023-07-13T00:03:53;6.60;;;3.20;;
71204;SDS011;58935;54.498;18.544;2023-07-13T00:06:18;5.80;;;3.20;;
71204;SDS011;58935;54.498;18.544;2023-07-13T00:08:45;5.10;;;3.10;;
71204;SDS011;58935;54.498;18.544;2023-07-13T00:11:10;3.20;;;2.70;;
71204;SDS011;58935;54.498;18.544;2023-07-13T00:13:36;4.90;;;2.80;;
71204;SDS011;58935;54.498;18.544;2023-07-13T00:16:03;6.00;;;3.30;;
71204;SDS011;58935;54.498;18.544;2023-07-13T00:18:29;7.10;;;2.90;;
71204;SDS011;58935;54.498;18.544;2023-07-13T00:20:55;7.40;;;3.20;;
71204;SDS011;58935;54.498;18.544;2023-07-13T00:23:22;6.20;;;3.40;;
71204;SDS011;58935;54.498;18.544;2023-07-13T00:25:48;7.20;;;3.30;;
71204;SDS011;58935;54.498;18.544;2023-07-13T00:28:15;7.00;;;3.40;;
71204;SDS011;58935;54.498;18.544;2023-07-13T00:30:41;6.40;;;3.50;;
71204;SDS011;58935;54.498;18.544;2023-07-13T00:33:06;10.60;;;3.40;;
71204;SDS011;58935;54.498;18.544;2023-07-13T00:35:32;7.30;;;3.30;;
71204;SDS011;58935;54.498;18.544;2023-07-13T00:37:59;6.60;;;3.40;;
71204;SDS011;58935;54.498;18.544;2023-07-13T00:40:24;14.10;;;3.50;;
71204;SDS011;58935;54.498;18.544;2023-07-13T00:42:52;4.70;;;3.50;;
71204;SDS011;58935;54.498;18.544;2023-07-13T00:48:36;5.90;;;3.40;;
71204;SDS011;58935;54.498;18.544;2023-07-13T00:51:03;6.00;;;3.30;;
71204;SDS011;58935;54.498;18.544;2023-07-13T00:53:31;5.70;;;3.20;;
71204;SDS011;58935;54.498;18.544;2023-07-13T00:55:58;8.20;;;3.70;;
71204;SDS011;58935;54.498;18.544;2023-07-13T00:58:25;10.10;;;3.80;;
71204;SDS011;58935;54.498;18.544;2023-07-13T01:00:52;5.50;;;3.70;;
71204;SDS011;58935;54.498;18.544;2023-07-13T01:03:18;5.20;;;3.10;;
71204;SDS011;58935;54.498;18.544;2023-07-13T01:05:47;6.30;;;3.30;;
71204;SDS011;58935;54.498;18.544;2023-07-13T01:08:15;7.30;;;3.30;;
71204;SDS011;58935;54.498;18.544;2023-07-13T01:10:41;9.50;;;4.20;;
71204;SDS011;58935;54.498;18.544;2023-07-13T01:13:09;6.10;;;3.90;;
71204;SDS011;58935;54.498;18.544;2023-07-13T01:15:40;9.00;;;3.80;;
71204;SDS011;58935;54.498;18.544;2023-07-13T01:18:10;7.00;;;3.80;;
71204;SDS011;58935;54.498;18.544;2023-07-13T01:20:39;6.60;;;4.30;;
71204;SDS011;58935;54.498;18.544;2023-07-13T01:23:07;9.40;;;4.40;;
71204;SDS011;58935;54.498;18.544;2023-07-13T01:25:36;7.30;;;4.20;;
71204;SDS011;58935;54.498;18.544;2023-07-13T01:28:07;9.20;;;3.90;;
71204;SDS011;58935;54.498;18.544;2023-07-13T01:30:38;7.80;;;4.30;;
71204;SDS011;58935;54.498;18.544;2023-07-13T01:33:06;5.70;;;3.50;;
71204;SDS011;58935;54.498;18.544;2023-07-13T01:35:33;7.20;;;3.80;;
71204;SDS011;58935;54.498;18.544;2023-07-13T01:37:59;6.70;;;3.70;;
71204;SDS011;58935;54.498;18.544;2023-07-13T01:40:27;13.10;;;3.70;;
71204;SDS011;58935;54.498;18.544;2023-07-13T01:42:53;10.70;;;4.30;;
71204;SDS011;58935;54.498;18.544;2023-07-13T01:45:19;8.60;;;3.40;;
71204;SDS011;58935;54.498;18.544;2023-07-13T01:47:44;6.80;;;3.70;;
71204;SDS011;58935;54.498;18.544;2023-07-13T01:50:10;7.90;;;3.80;;
71204;SDS011;58935;54.498;18.544;2023-07-13T01:52:35;7.80;;;4.00;;
71204;SDS011;58935;54.498;18.544;2023-07-13T01:55:01;11.00;;;3.80;;
71204;SDS011;58935;54.498;18.544;2023-07-13T01:57:27;6.20;;;3.90;;
71204;SDS011;58935;54.498;18.544;2023-07-13T01:59:53;6.80;;;4.00;;
71204;SDS011;58935;54.498;18.544;2023-07-13T02:02:18;11.00;;;3.60;;
71204;SDS011;58935;54.498;18.544;2023-07-13T02:04:44;5.20;;;3.60;;
71204;SDS011;58935;54.498;18.544;2023-07-13T02:07:10;9.40;;;3.40;;
71204;SDS011;58935;54.498;18.544;2023-07-13T02:09:35;6.90;;;3.50;;
71204;SDS011;58935;54.498;18.544;2023-07-13T02:12:01;6.20;;;3.90;;
71204;SDS011;58935;54.498;18.544;2023-07-13T02:14:27;7.10;;;3.90;;
71204;SDS011;58935;54.498;18.544;2023-07-13T02:16:52;9.70;;;3.60;;
71204;SDS011;58935;54.498;18.544;2023-07-13T02:19:17;9.20;;;3.40;;
71204;SDS011;58935;54.498;18.544;2023-07-13T02:21:43;5.00;;;3.50;;
71204;SDS011;58935;54.498;18.544;2023-07-13T02:24:08;8.90;;;4.20;;
71204;SDS011;58935;54.498;18.544;2023-07-13T02:26:34;7.10;;;3.70;;
71204;SDS011;58935;54.498;18.544;2023-07-13T02:29:01;8.10;;;4.00;;
71204;SDS011;58935;54.498;18.544;2023-07-13T02:31:26;10.90;;;4.00;;
71204;SDS011;58935;54.498;18.544;2023-07-13T02:33:51;8.10;;;3.80;;
71204;SDS011;58935;54.498;18.544;2023-07-13T02:36:17;5.40;;;3.60;;
71204;SDS011;58935;54.498;18.544;2023-07-13T02:38:44;10.30;;;4.00;;
71204;SDS011;58935;54.498;18.544;2023-07-13T02:41:09;10.80;;;3.80;;
71204;SDS011;58935;54.498;18.544;2023-07-13T02:43:37;8.10;;;3.50;;
71204;SDS011;58935;54.498;18.544;2023-07-13T02:46:03;7.70;;;3.40;;
71204;SDS011;58935;54.498;18.544;2023-07-13T02:48:33;13.70;;;4.10;;
71204;SDS011;58935;54.498;18.544;2023-07-13T02:50:59;10.40;;;3.50;;
71204;SDS011;58935;54.498;18.544;2023-07-13T02:53:24;7.90;;;3.80;;
71204;SDS011;58935;54.498;18.544;2023-07-13T02:55:50;7.60;;;3.60;;
71204;SDS011;58935;54.498;18.544;2023-07-13T02:58:16;6.60;;;3.70;;
71204;SDS011;58935;54.498;18.544;2023-07-13T03:00:43;7.20;;;3.70;;
71204;SDS011;58935;54.498;18.544;2023-07-13T03:03:11;7.30;;;3.70;;
71204;SDS011;58935;54.498;18.544;2023-07-13T03:05:37;6.60;;;3.60;;
71204;SDS011;58935;54.498;18.544;2023-07-13T03:08:05;7.80;;;3.90;;
71204;SDS011;58935;54.498;18.544;2023-07-13T03:10:31;10.80;;;3.70;;
71204;SDS011;58935;54.498;18.544;2023-07-13T03:12:57;8.60;;;3.40;;
71204;SDS011;58935;54.498;18.544;2023-07-13T03:15:22;10.90;;;4.40;;
71204;SDS011;58935;54.498;18.544;2023-07-13T03:17:48;6.00;;;3.60;;
71204;SDS011;58935;54.498;18.544;2023-07-13T03:20:15;6.60;;;3.30;;
71204;SDS011;58935;54.498;18.544;2023-07-13T03:22:40;9.00;;;3.70;;
71204;SDS011;58935;54.498;18.544;2023-07-13T03:25:07;9.30;;;3.70;;
71204;SDS011;58935;54.498;18.544;2023-07-13T03:27:33;8.90;;;3.90;;
71204;SDS011;58935;54.498;18.544;2023-07-13T03:29:58;10.60;;;3.60;;
71204;SDS011;58935;54.498;18.544;2023-07-13T03:32:24;9.20;;;3.50;;
71204;SDS011;58935;54.498;18.544;2023-07-13T03:34:49;11.00;;;3.60;;
71204;SDS011;58935;54.498;18.544;2023-07-13T03:37:15;9.90;;;3.50;;
71204;SDS011;58935;54.498;18.544;2023-07-13T03:39:40;10.20;;;3.60;;
71204;SDS011;58935;54.498;18.544;2023-07-13T03:42:07;6.80;;;3.20;;
71204;SDS011;58935;54.498;18.544;2023-07-13T03:44:33;10.00;;;3.90;;
71204;SDS011;58935;54.498;18.544;2023-07-13T03:46:58;8.20;;;3.20;;
71204;SDS011;58935;54.498;18.544;2023-07-13T03:49:24;13.00;;;4.00;;
71204;SDS011;58935;54.498;18.544;2023-07-13T03:51:49;12.90;;;3.70;;
71204;SDS011;58935;54.498;18.544;2023-07-13T03:54:14;10.10;;;3.60;;
71204;SDS011;58935;54.498;18.544;2023-07-13T03:56:40;11.10;;;4.10;;
71204;SDS011;58935;54.498;18.544;2023-07-13T03:59:05;5.90;;;3.10;;
71204;SDS011;58935;54.498;18.544;2023-07-13T04:01:30;10.10;;;3.40;;
71204;SDS011;58935;54.498;18.544;2023-07-13T04:03:56;9.60;;;3.30;;
71204;SDS011;58935;54.498;18.544;2023-07-13T04:06:27;9.70;;;3.60;;
71204;SDS011;58935;54.498;18.544;2023-07-13T04:08:56;12.00;;;3.20;;
71204;SDS011;58935;54.498;18.544;2023-07-13T04:11:26;10.90;;;3.30;;
71204;SDS011;58935;54.498;18.544;2023-07-13T04:13:54;10.10;;;3.90;;
71204;SDS011;58935;54.498;18.544;2023-07-13T04:16:20;13.10;;;3.30;;
71204;SDS011;58935;54.498;18.544;2023-07-13T04:18:47;10.90;;;3.40;;
71204;SDS011;58935;54.498;18.544;2023-07-13T04:21:14;12.20;;;3.10;;
71204;SDS011;58935;54.498;18.544;2023-07-13T04:23:40;14.90;;;3.10;;
71204;SDS011;58935;54.498;18.544;2023-07-13T04:26:06;6.50;;;2.90;;
71204;SDS011;58935;54.498;18.544;2023-07-13T04:28:33;10.50;;;3.20;;
71204;SDS011;58935;54.498;18.544;2023-07-13T04:30:59;6.70;;;2.70;;
71204;SDS011;58935;54.498;18.544;2023-07-13T04:33:26;12.00;;;3.40;;
71204;SDS011;58935;54.498;18.544;2023-07-13T04:35:54;6.00;;;2.70;;
71204;SDS011;58935;54.498;18.544;2023-07-13T04:38:24;11.10;;;3.30;;
71204;SDS011;58935;54.498;18.544;2023-07-13T04:40:55;12.20;;;3.30;;
71204;SDS011;58935;54.498;18.544;2023-07-13T04:43:23;11.00;;;3.00;;
71204;SDS011;58935;54.498;18.544;2023-07-13T04:45:50;6.00;;;2.40;;
71204;SDS011;58935;54.498;18.544;2023-07-13T04:48:17;8.10;;;2.70;;
71204;SDS011;58935;54.498;18.544;2023-07-13T04:50:43;8.20;;;2.80;;
71204;SDS011;58935;54.498;18.544;2023-07-13T04:53:09;7.90;;;2.80;;
71204;SDS011;58935;54.498;18.544;2023-07-13T04:55:36;12.40;;;3.10;;
71204;SDS011;58935;54.498;18.544;2023-07-13T04:58:02;10.50;;;2.90;;
71204;SDS011;58935;54.498;18.544;2023-07-13T05:00:29;6.30;;;2.50;;
71204;SDS011;58935;54.498;18.544;2023-07-13T05:02:56;6.80;;;2.80;;
71204;SDS011;58935;54.498;18.544;2023-07-13T05:05:24;9.30;;;2.90;;
71204;SDS011;58935;54.498;18.544;2023-07-13T05:07:52;5.50;;;2.20;;
71204;SDS011;58935;54.498;18.544;2023-07-13T05:10:18;5.20;;;2.40;;
71204;SDS011;58935;54.498;18.544;2023-07-13T05:12:44;7.10;;;2.80;;
71204;SDS011;58935;54.498;18.544;2023-07-13T05:15:10;6.00;;;2.30;;
71204;SDS011;58935;54.498;18.544;2023-07-13T05:17:37;3.90;;;1.60;;
71204;SDS011;58935;54.498;18.544;2023-07-13T05:20:05;7.90;;;3.10;;
71204;SDS011;58935;54.498;18.544;2023-07-13T05:22:32;5.00;;;2.10;;
71204;SDS011;58935;54.498;18.544;2023-07-13T05:24:57;4.80;;;2.20;;
71204;SDS011;58935;54.498;18.544;2023-07-13T05:27:22;8.20;;;2.50;;
71204;SDS011;58935;54.498;18.544;2023-07-13T05:29:49;5.40;;;2.20;;
71204;SDS011;58935;54.498;18.544;2023-07-13T05:32:15;4.80;;;2.40;;
71204;SDS011;58935;54.498;18.544;2023-07-13T05:34:42;6.00;;;2.20;;
71204;SDS011;58935;54.498;18.544;2023-07-13T05:37:09;7.80;;;2.20;;
71204;SDS011;58935;54.498;18.544;2023-07-13T05:39:35;4.80;;;2.60;;
71204;SDS011;58935;54.498;18.544;2023-07-13T05:42:02;7.40;;;2.10;;
71204;SDS011;58935;54.498;18.544;2023-07-13T05:44:27;10.00;;;2.30;;
71204;SDS011;58935;54.498;18.544;2023-07-13T05:46:53;8.30;;;2.30;;
71204;SDS011;58935;54.498;18.544;2023-07-13T05:49:20;7.40;;;2.20;;
71204;SDS011;58935;54.498;18.544;2023-07-13T05:51:45;5.10;;;2.10;;
71204;SDS011;58935;54.498;18.544;2023-07-13T05:54:10;6.00;;;2.00;;
71204;SDS011;58935;54.498;18.544;2023-07-13T05:56:36;12.80;;;3.10;;
71204;SDS011;58935;54.498;18.544;2023-07-13T05:59:01;7.00;;;2.20;;
71204;SDS011;58935;54.498;18.544;2023-07-13T06:01:26;5.90;;;2.00;;
71204;SDS011;58935;54.498;18.544;2023-07-13T06:03:52;4.10;;;1.60;;
71204;SDS011;58935;54.498;18.544;2023-07-13T06:06:17;6.10;;;2.00;;
71204;SDS011;58935;54.498;18.544;2023-07-13T06:08:42;4.50;;;1.90;;
71204;SDS011;58935;54.498;18.544;2023-07-13T06:11:22;6.10;;;1.80;;
71204;SDS011;58935;54.498;18.544;2023-07-13T06:13:49;7.20;;;1.90;;
71204;SDS011;58935;54.498;18.544;2023-07-13T06:16:15;4.40;;;2.00;;
71204;SDS011;58935;54.498;18.544;2023-07-13T06:18:42;5.50;;;1.70;;
71204;SDS011;58935;54.498;18.544;2023-07-13T06:21:11;3.50;;;1.80;;
71204;SDS011;58935;54.498;18.544;2023-07-13T06:23:39;6.90;;;2.10;;
71204;SDS011;58935;54.498;18.544;2023-07-13T06:26:05;7.30;;;1.70;;
71204;SDS011;58935;54.498;18.544;2023-07-13T06:28:32;8.30;;;2.40;;
71204;SDS011;58935;54.498;18.544;2023-07-13T06:30:58;7.90;;;2.10;;
71204;SDS011;58935;54.498;18.544;2023-07-13T06:33:25;8.90;;;2.00;;
71204;SDS011;58935;54.498;18.544;2023-07-13T06:35:51;5.80;;;1.80;;
71204;SDS011;58935;54.498;18.544;2023-07-13T06:38:16;5.20;;;1.40;;
71204;SDS011;58935;54.498;18.544;2023-07-13T06:44:23;4.40;;;1.60;;
71204;SDS011;58935;54.498;18.544;2023-07-13T06:46:48;5.80;;;1.70;;
71204;SDS011;58935;54.498;18.544;2023-07-13T06:49:13;4.10;;;1.90;;
71204;SDS011;58935;54.498;18.544;2023-07-13T06:51:39;6.60;;;2.10;;
71204;SDS011;58935;54.498;18.544;2023-07-13T06:54:04;3.20;;;1.40;;
71204;SDS011;58935;54.498;18.544;2023-07-13T06:56:29;3.50;;;1.50;;
71204;SDS011;58935;54.498;18.544;2023-07-13T06:58:55;6.40;;;1.40;;
71204;SDS011;58935;54.498;18.544;2023-07-13T07:01:20;4.30;;;1.30;;
71204;SDS011;58935;54.498;18.544;2023-07-13T07:03:46;4.80;;;1.50;;
71204;SDS011;58935;54.498;18.544;2023-07-13T07:06:17;4.80;;;1.60;;
71204;SDS011;58935;54.498;18.544;2023-07-13T07:08:44;4.00;;;1.90;;
71204;SDS011;58935;54.498;18.544;2023-07-13T07:11:13;4.50;;;1.50;;
71204;SDS011;58935;54.498;18.544;2023-07-13T07:13:40;5.20;;;1.70;;
71204;SDS011;58935;54.498;18.544;2023-07-13T07:16:05;4.20;;;1.60;;
71204;SDS011;58935;54.498;18.544;2023-07-13T07:18:31;3.10;;;1.40;;
71204;SDS011;58935;54.498;18.544;2023-07-13T07:20:57;3.70;;;1.60;;
71204;SDS011;58935;54.498;18.544;2023-07-13T07:23:22;2.80;;;1.50;;
71204;SDS011;58935;54.498;18.544;2023-07-13T07:25:47;2.60;;;1.40;;
71204;SDS011;58935;54.498;18.544;2023-07-13T07:28:15;7.30;;;1.70;;
71204;SDS011;58935;54.498;18.544;2023-07-13T07:30:45;3.80;;;1.50;;
71204;SDS011;58935;54.498;18.544;2023-07-13T07:33:11;4.20;;;1.50;;
71204;SDS011;58935;54.498;18.544;2023-07-13T07:35:38;4.40;;;1.60;;
71204;SDS011;58935;54.498;18.544;2023-07-13T07:38:03;1.60;;;1.10;;
71204;SDS011;58935;54.498;18.544;2023-07-13T07:40:29;3.70;;;1.60;;
71204;SDS011;58935;54.498;18.544;2023-07-13T07:42:54;4.30;;;1.60;;
71204;SDS011;58935;54.498;18.544;2023-07-13T07:45:20;2.90;;;1.50;;
71204;SDS011;58935;54.498;18.544;2023-07-13T07:47:46;4.20;;;1.60;;
71204;SDS011;58935;54.498;18.544;2023-07-13T07:50:12;6.40;;;1.60;;
71204;SDS011;58935;54.498;18.544;2023-07-13T07:52:38;5.10;;;1.60;;
71204;SDS011;58935;54.498;18.544;2023-07-13T07:55:05;1.80;;;1.30;;
71204;SDS011;58935;54.498;18.544;2023-07-13T07:57:32;2.10;;;1.50;;
71204;SDS011;58935;54.498;18.544;2023-07-13T08:00:16;2.40;;;1.10;;
71204;SDS011;58935;54.498;18.544;2023-07-13T08:02:42;4.40;;;1.30;;
71204;SDS011;58935;54.498;18.544;2023-07-13T08:05:09;2.60;;;1.30;;
71204;SDS011;58935;54.498;18.544;2023-07-13T08:07:36;3.40;;;1.40;;
71204;SDS011;58935;54.498;18.544;2023-07-13T08:10:03;2.60;;;1.40;;
71204;SDS011;58935;54.498;18.544;2023-07-13T08:12:29;3.00;;;1.50;;
71204;SDS011;58935;54.498;18.544;2023-07-13T08:14:54;3.40;;;1.30;;
71204;SDS011;58935;54.498;18.544;2023-07-13T08:17:23;4.80;;;1.90;;
71204;SDS011;58935;54.498;18.544;2023-07-13T08:19:49;5.10;;;1.50;;
71204;SDS011;58935;54.498;18.544;2023-07-13T08:22:15;4.50;;;1.70;;
71204;SDS011;58935;54.498;18.544;2023-07-13T08:24:40;5.00;;;1.60;;
71204;SDS011;58935;54.498;18.544;2023-07-13T08:27:08;4.20;;;1.50;;
71204;SDS011;58935;54.498;18.544;2023-07-13T08:29:34;3.70;;;1.90;;
71204;SDS011;58935;54.498;18.544;2023-07-13T08:31:59;3.90;;;1.70;;
71204;SDS011;58935;54.498;18.544;2023-07-13T08:34:24;6.40;;;1.70;;
71204;SDS011;58935;54.498;18.544;2023-07-13T08:36:50;8.20;;;1.80;;
71204;SDS011;58935;54.498;18.544;2023-07-13T08:39:15;3.30;;;1.30;;
71204;SDS011;58935;54.498;18.544;2023-07-13T08:41:40;4.80;;;1.40;;
71204;SDS011;58935;54.498;18.544;2023-07-13T08:44:19;3.30;;;1.40;;
71204;SDS011;58935;54.498;18.544;2023-07-13T08:46:52;2.90;;;1.20;;
71204;SDS011;58935;54.498;18.544;2023-07-13T08:49:22;2.70;;;1.20;;
71204;SDS011;58935;54.498;18.544;2023-07-13T08:51:53;4.20;;;1.20;;
71204;SDS011;58935;54.498;18.544;2023-07-13T08:57:16;3.80;;;1.60;;
71204;SDS011;58935;54.498;18.544;2023-07-13T08:59:44;3.80;;;1.50;;
71204;SDS011;58935;54.498;18.544;2023-07-13T09:02:28;2.70;;;1.10;;
71204;SDS011;58935;54.498;18.544;2023-07-13T09:05:12;6.00;;;1.40;;
71204;SDS011;58935;54.498;18.544;2023-07-13T09:10:45;2.70;;;1.30;;
71204;SDS011;58935;54.498;18.544;2023-07-13T09:13:25;3.80;;;1.20;;
71204;SDS011;58935;54.498;18.544;2023-07-13T09:15:59;3.80;;;1.20;;
71204;SDS011;58935;54.498;18.544;2023-07-13T09:18:29;2.50;;;1.10;;
71204;SDS011;58935;54.498;18.544;2023-07-13T09:21:05;3.40;;;1.60;;
71204;SDS011;58935;54.498;18.544;2023-07-13T09:23:35;3.20;;;1.20;;
71204;SDS011;58935;54.498;18.544;2023-07-13T09:26:12;2.90;;;1.00;;
71204;SDS011;58935;54.498;18.544;2023-07-13T09:28:49;2.50;;;1.30;;
71204;SDS011;58935;54.498;18.544;2023-07-13T09:31:29;2.60;;;1.30;;
71204;SDS011;58935;54.498;18.544;2023-07-13T09:33:59;2.00;;;1.30;;
71204;SDS011;58935;54.498;18.544;2023-07-13T09:36:28;2.80;;;1.20;;
71204;SDS011;58935;54.498;18.544;2023-07-13T09:41:47;3.60;;;1.70;;
71204;SDS011;58935;54.498;18.544;2023-07-13T09:44:29;3.00;;;1.10;;
71204;SDS011;58935;54.498;18.544;2023-07-13T09:46:56;2.80;;;1.20;;
71204;SDS011;58935;54.498;18.544;2023-07-13T09:49:27;2.90;;;1.20;;
71204;SDS011;58935;54.498;18.544;2023-07-13T09:52:09;3.20;;;1.20;;
71204;SDS011;58935;54.498;18.544;2023-07-13T09:54:37;2.10;;;1.00;;
71204;SDS011;58935;54.498;18.544;2023-07-13T09:57:11;1.90;;;1.10;;
71204;SDS011;58935;54.498;18.544;2023-07-13T09:59:51;5.50;;;1.70;;
71204;SDS011;58935;54.498;18.544;2023-07-13T10:02:33;2.80;;;1.20;;
71204;SDS011;58935;54.498;18.544;2023-07-13T10:05:11;2.70;;;1.10;;
71204;SDS011;58935;54.498;18.544;2023-07-13T10:07:41;2.00;;;1.10;;
71204;SDS011;58935;54.498;18.544;2023-07-13T10:10:19;3.20;;;1.00;;
71204;SDS011;58935;54.498;18.544;2023-07-13T10:12:46;1.90;;;1.10;;
71204;SDS011;58935;54.498;18.544;2023-07-13T10:15:23;1.90;;;1.10;;
71204;SDS011;58935;54.498;18.544;2023-07-13T10:17:51;2.70;;;1.10;;
71204;SDS011;58935;54.498;18.544;2023-07-13T10:20:20;3.80;;;1.60;;
71204;SDS011;58935;54.498;18.544;2023-07-13T10:22:59;2.10;;;1.00;;
71204;SDS011;58935;54.498;18.544;2023-07-13T10:25:32;2.10;;;1.00;;
71204;SDS011;58935;54.498;18.544;2023-07-13T10:28:14;2.40;;;1.30;;
71204;SDS011;58935;54.498;18.544;2023-07-13T10:30:52;4.70;;;1.50;;
71204;SDS011;58935;54.498;18.544;2023-07-13T10:33:20;2.00;;;1.20;;
71204;SDS011;58935;54.498;18.544;2023-07-13T10:35:50;1.90;;;1.00;;
71204;SDS011;58935;54.498;18.544;2023-07-13T10:38:22;6.50;;;1.20;;
71204;SDS011;58935;54.498;18.544;2023-07-13T10:40:57;2.80;;;1.30;;
71204;SDS011;58935;54.498;18.544;2023-07-13T10:43:33;3.70;;;1.30;;
71204;SDS011;58935;54.498;18.544;2023-07-13T10:46:04;5.10;;;1.60;;
71204;SDS011;58935;54.498;18.544;2023-07-13T10:48:33;2.90;;;1.20;;
71204;SDS011;58935;54.498;18.544;2023-07-13T10:51:03;1.60;;;1.10;;
71204;SDS011;58935;54.498;18.544;2023-07-13T10:53:34;9.20;;;1.50;;
71204;SDS011;58935;54.498;18.544;2023-07-13T10:56:14;2.60;;;1.30;;
71204;SDS011;58935;54.498;18.544;2023-07-13T10:59:05;3.20;;;1.10;;
71204;SDS011;58935;54.498;18.544;2023-07-13T11:01:46;3.50;;;1.20;;
71204;SDS011;58935;54.498;18.544;2023-07-13T11:04:16;1.40;;;1.10;;
71204;SDS011;58935;54.498;18.544;2023-07-13T11:06:47;3.00;;;1.20;;
71204;SDS011;58935;54.498;18.544;2023-07-13T11:12:26;4.60;;;1.60;;
71204;SDS011;58935;54.498;18.544;2023-07-13T11:15:05;2.20;;;1.10;;
71204;SDS011;58935;54.498;18.544;2023-07-13T11:17:45;3.60;;;1.00;;
71204;SDS011;58935;54.498;18.544;2023-07-13T11:20:23;3.00;;;1.20;;
71204;SDS011;58935;54.498;18.544;2023-07-13T11:23:18;4.80;;;1.20;;
71204;SDS011;58935;54.498;18.544;2023-07-13T11:25:47;4.80;;;1.40;;
71204;SDS011;58935;54.498;18.544;2023-07-13T11:28:21;6.70;;;1.70;;
71204;SDS011;58935;54.498;18.544;2023-07-13T11:31:00;3.80;;;1.30;;
71204;SDS011;58935;54.498;18.544;2023-07-13T11:33:47;4.50;;;1.30;;
71204;SDS011;58935;54.498;18.544;2023-07-13T11:36:18;3.90;;;1.20;;
71204;SDS011;58935;54.498;18.544;2023-07-13T11:38:59;2.40;;;1.40;;
71204;SDS011;58935;54.498;18.544;2023-07-13T11:41:31;2.20;;;1.00;;
71204;SDS011;58935;54.498;18.544;2023-07-13T11:44:19;6.40;;;1.70;;
71204;SDS011;58935;54.498;18.544;2023-07-13T11:46:49;6.20;;;1.50;;
71204;SDS011;58935;54.498;18.544;2023-07-13T11:49:19;3.30;;;1.20;;
71204;SDS011;58935;54.498;18.544;2023-07-13T11:51:47;4.40;;;1.60;;
71204;SDS011;58935;54.498;18.544;2023-07-13T11:54:27;2.40;;;1.30;;
71204;SDS011;58935;54.498;18.544;2023-07-13T11:57:01;2.90;;;1.10;;
71204;SDS011;58935;54.498;18.544;2023-07-13T11:59:38;3.30;;;1.10;;
71204;SDS011;58935;54.498;18.544;2023-07-13T12:02:16;2.60;;;1.30;;
71204;SDS011;58935;54.498;18.544;2023-07-13T12:04:49;2.70;;;1.20;;
71204;SDS011;58935;54.498;18.544;2023-07-13T12:07:18;5.10;;;1.20;;
71204;SDS011;58935;54.498;18.544;2023-07-13T12:09:44;4.20;;;1.50;;
71204;SDS011;58935;54.498;18.544;2023-07-13T12:12:12;3.30;;;1.20;;
71204;SDS011;58935;54.498;18.544;2023-07-13T12:14:38;3.10;;;1.00;;
71204;SDS011;58935;54.498;18.544;2023-07-13T12:17:18;3.20;;;1.40;;
71204;SDS011;58935;54.498;18.544;2023-07-13T12:19:47;2.50;;;1.30;;
71204;SDS011;58935;54.498;18.544;2023-07-13T12:22:16;3.50;;;1.40;;
71204;SDS011;58935;54.498;18.544;2023-07-13T12:24:43;3.40;;;1.70;;
71204;SDS011;58935;54.498;18.544;2023-07-13T12:27:19;7.50;;;1.20;;
71204;SDS011;58935;54.498;18.544;2023-07-13T12:29:58;4.60;;;1.30;;
71204;SDS011;58935;54.498;18.544;2023-07-13T12:32:26;3.40;;;1.60;;
71204;SDS011;58935;54.498;18.544;2023-07-13T12:35:01;3.00;;;1.50;;
71204;SDS011;58935;54.498;18.544;2023-07-13T12:37:42;3.10;;;1.30;;
71204;SDS011;58935;54.498;18.544;2023-07-13T12:40:20;4.10;;;1.30;;
71204;SDS011;58935;54.498;18.544;2023-07-13T12:42:51;5.50;;;2.10;;
71204;SDS011;58935;54.498;18.544;2023-07-13T12:45:24;3.40;;;1.20;;
71204;SDS011;58935;54.498;18.544;2023-07-13T12:47:57;1.70;;;1.00;;
71204;SDS011;58935;54.498;18.544;2023-07-13T12:53:01;3.90;;;1.20;;
71204;SDS011;58935;54.498;18.544;2023-07-13T12:55:29;4.30;;;1.30;;
71204;SDS011;58935;54.498;18.544;2023-07-13T12:58:37;3.80;;;1.40;;
71204;SDS011;58935;54.498;18.544;2023-07-13T13:01:07;2.20;;;1.00;;
71204;SDS011;58935;54.498;18.544;2023-07-13T13:03:38;4.20;;;1.20;;
71204;SDS011;58935;54.498;18.544;2023-07-13T13:06:21;3.90;;;1.30;;
71204;SDS011;58935;54.498;18.544;2023-07-13T13:08:52;3.20;;;0.90;;
71204;SDS011;58935;54.498;18.544;2023-07-13T13:11:21;2.00;;;1.10;;
71204;SDS011;58935;54.498;18.544;2023-07-13T13:13:48;3.10;;;1.20;;
71204;SDS011;58935;54.498;18.544;2023-07-13T13:16:31;1.70;;;0.90;;
71204;SDS011;58935;54.498;18.544;2023-07-13T13:21:43;2.40;;;1.30;;
71204;SDS011;58935;54.498;18.544;2023-07-13T13:24:16;3.50;;;1.50;;
71204;SDS011;58935;54.498;18.544;2023-07-13T13:26:44;3.60;;;1.20;;
71204;SDS011;58935;54.498;18.544;2023-07-13T13:29:15;2.30;;;1.10;;
71204;SDS011;58935;54.498;18.544;2023-07-13T13:31:43;3.20;;;1.20;;
71204;SDS011;58935;54.498;18.544;2023-07-13T13:34:11;2.40;;;0.90;;
71204;SDS011;58935;54.498;18.544;2023-07-13T13:36:38;4.10;;;1.20;;
71204;SDS011;58935;54.498;18.544;2023-07-13T13:39:16;2.80;;;0.80;;
71204;SDS011;58935;54.498;18.544;2023-07-13T13:41:45;6.20;;;1.20;;
71204;SDS011;58935;54.498;18.544;2023-07-13T13:44:14;2.10;;;1.10;;
71204;SDS011;58935;54.498;18.544;2023-07-13T13:46:41;3.80;;;1.30;;
71204;SDS011;58935;54.498;18.544;2023-07-13T13:49:19;3.20;;;1.30;;
71204;SDS011;58935;54.498;18.544;2023-07-13T13:51:48;4.90;;;1.20;;
71204;SDS011;58935;54.498;18.544;2023-07-13T13:54:15;3.50;;;1.20;;
71204;SDS011;58935;54.498;18.544;2023-07-13T13:56:43;4.50;;;1.20;;
71204;SDS011;58935;54.498;18.544;2023-07-13T13:59:11;3.20;;;1.20;;
71204;SDS011;58935;54.498;18.544;2023-07-13T14:01:37;9.40;;;1.80;;
71204;SDS011;58935;54.498;18.544;2023-07-13T14:04:03;1.90;;;1.20;;
71204;SDS011;58935;54.498;18.544;2023-07-13T14:06:31;3.90;;;1.10;;
71204;SDS011;58935;54.498;18.544;2023-07-13T14:08:59;6.00;;;1.50;;
71204;SDS011;58935;54.498;18.544;2023-07-13T14:11:26;2.20;;;1.30;;
71204;SDS011;58935;54.498;18.544;2023-07-13T14:13:57;4.70;;;0.90;;
71204;SDS011;58935;54.498;18.544;2023-07-13T14:16:28;2.50;;;1.00;;
71204;SDS011;58935;54.498;18.544;2023-07-13T14:18:57;2.90;;;1.10;;
71204;SDS011;58935;54.498;18.544;2023-07-13T14:21:26;3.50;;;1.60;;
71204;SDS011;58935;54.498;18.544;2023-07-13T14:23:53;3.50;;;1.10;;
71204;SDS011;58935;54.498;18.544;2023-07-13T14:26:23;4.40;;;1.30;;
71204;SDS011;58935;54.498;18.544;2023-07-13T14:28:53;2.50;;;1.00;;
71204;SDS011;58935;54.498;18.544;2023-07-13T14:31:22;4.20;;;1.00;;
71204;SDS011;58935;54.498;18.544;2023-07-13T14:33:49;2.50;;;1.30;;
71204;SDS011;58935;54.498;18.544;2023-07-13T14:36:26;1.90;;;1.10;;
71204;SDS011;58935;54.498;18.544;2023-07-13T14:38:55;4.80;;;1.30;;
71204;SDS011;58935;54.498;18.544;2023-07-13T14:41:22;2.30;;;1.00;;
71204;SDS011;58935;54.498;18.544;2023-07-13T14:43:48;4.50;;;1.60;;
71204;SDS011;58935;54.498;18.544;2023-07-13T14:46:28;4.50;;;1.00;;
71204;SDS011;58935;54.498;18.544;2023-07-13T14:49:02;2.20;;;1.10;;
71204;SDS011;58935;54.498;18.544;2023-07-13T14:51:31;2.70;;;1.10;;
71204;SDS011;58935;54.498;18.544;2023-07-13T14:54:01;4.80;;;1.40;;
71204;SDS011;58935;54.498;18.544;2023-07-13T14:56:28;2.20;;;1.40;;
71204;SDS011;58935;54.498;18.544;2023-07-13T14:58:53;3.00;;;1.40;;
71204;SDS011;58935;54.498;18.544;2023-07-13T15:01:19;1.80;;;1.00;;
71204;SDS011;58935;54.498;18.544;2023-07-13T15:03:48;3.00;;;1.30;;
71204;SDS011;58935;54.498;18.544;2023-07-13T15:06:16;4.20;;;1.20;;
71204;SDS011;58935;54.498;18.544;2023-07-13T15:08:42;4.80;;;1.10;;